createdAt,value
2018-03-16T00:01:31.826Z,17.37
2018-03-16T00:03:59.291Z,18.50
2018-03-16T00:06:26.770Z,17.03
2018-03-16T00:08:54.245Z,17.67
2018-03-16T00:11:22.614Z,17.37
2018-03-16T00:13:50.142Z,17.63
2018-03-16T00:16:17.690Z,19.03
2018-03-16T00:18:45.179Z,19.07
2018-03-16T00:21:12.758Z,18.37
2018-03-16T00:23:41.019Z,18.10
2018-03-16T00:26:08.540Z,18.70
2018-03-16T00:28:36.101Z,18.67
2018-03-16T00:31:03.641Z,16.33
2018-03-16T00:33:31.150Z,17.83
2018-03-16T00:35:59.510Z,18.83
2018-03-16T00:38:27.078Z,18.70
2018-03-16T00:40:54.631Z,18.20
2018-03-16T00:43:22.898Z,18.77
2018-03-16T00:45:50.410Z,19.73
2018-03-16T00:48:18.003Z,18.73
2018-03-16T00:50:45.495Z,19.07
2018-03-16T00:53:13.090Z,20.43
2018-03-16T00:55:40.644Z,18.97
2018-03-16T00:58:08.139Z,17.80
2018-03-16T01:00:35.611Z,17.40
2018-03-16T01:03:03.165Z,20.13
2018-03-16T01:05:30.670Z,17.50
2018-03-16T01:07:58.282Z,17.53
2018-03-16T01:10:25.772Z,19.30
2018-03-16T01:12:53.408Z,17.87
2018-03-16T01:15:21.663Z,18.03
2018-03-16T01:17:49.224Z,17.60
2018-03-16T01:20:16.786Z,17.87
2018-03-16T01:22:44.314Z,18.83
2018-03-16T01:25:11.792Z,18.07
2018-03-16T01:27:39.291Z,17.60
2018-03-16T01:30:06.814Z,20.37
2018-03-16T01:32:34.307Z,17.33
2018-03-16T01:35:03.269Z,19.87
2018-03-16T01:37:30.966Z,19.87
2018-03-16T01:39:58.506Z,18.63
2018-03-16T01:42:26.996Z,18.20
2018-03-16T01:44:54.884Z,17.03
2018-03-16T01:47:22.374Z,19.23
2018-03-16T01:49:50.612Z,20.40
2018-03-16T01:52:18.064Z,19.07
2018-03-16T01:54:45.652Z,19.27
2018-03-16T01:57:13.128Z,18.40
2018-03-16T01:59:40.662Z,18.10
2018-03-16T02:02:08.151Z,20.20
2018-03-16T02:04:36.374Z,18.47
2018-03-16T02:07:03.879Z,18.60
2018-03-16T02:09:32.119Z,18.27
2018-03-16T02:11:59.610Z,18.37
2018-03-16T02:14:27.981Z,19.13
2018-03-16T02:16:55.463Z,19.77
2018-03-16T02:19:23.050Z,19.23
2018-03-16T02:21:50.532Z,20.33
2018-03-16T02:24:18.007Z,20.50
2018-03-16T02:26:45.502Z,19.43
2018-03-16T02:29:12.977Z,21.63
2018-03-16T02:31:40.477Z,22.50
2018-03-16T02:34:08.727Z,21.30
2018-03-16T02:36:36.231Z,18.80
2018-03-16T02:39:03.717Z,22.03
2018-03-16T02:41:31.225Z,20.83
2018-03-16T02:43:59.456Z,22.37
2018-03-16T02:46:26.947Z,24.23
2018-03-16T02:48:54.458Z,22.23
2018-03-16T02:51:22.019Z,22.70
2018-03-16T02:53:49.529Z,23.77
2018-03-16T02:56:17.791Z,22.53
2018-03-16T02:58:45.263Z,22.27
2018-03-16T03:01:13.502Z,23.47
2018-03-16T03:03:41.003Z,23.63
2018-03-16T03:06:08.485Z,22.37
2018-03-16T03:08:35.969Z,23.40
2018-03-16T03:11:04.965Z,23.23
2018-03-16T03:13:32.442Z,23.40
2018-03-16T03:16:00.724Z,23.87
2018-03-16T03:18:28.993Z,24.60
2018-03-16T03:20:57.230Z,22.93
2018-03-16T03:23:24.718Z,23.93
2018-03-16T03:25:52.196Z,24.20
2018-03-16T03:28:19.694Z,24.87
2018-03-16T03:30:47.245Z,23.47
2018-03-16T03:33:14.707Z,25.27
2018-03-16T03:35:42.193Z,24.03
2018-03-16T03:38:09.660Z,23.93
2018-03-16T03:40:37.935Z,23.03
2018-03-16T03:43:05.431Z,24.57
2018-03-16T03:45:32.954Z,24.83
2018-03-16T03:48:01.191Z,24.47
2018-03-16T03:50:28.675Z,25.33
2018-03-16T03:52:56.945Z,23.93
2018-03-16T03:55:24.444Z,25.37
2018-03-16T03:57:51.899Z,25.53
2018-03-16T04:00:19.378Z,26.50
2018-03-16T04:02:46.852Z,25.03
2018-03-16T04:05:14.356Z,26.07
2018-03-16T04:07:41.825Z,25.97
2018-03-16T04:10:09.311Z,25.47
2018-03-16T04:12:36.799Z,26.13
2018-03-16T04:15:05.050Z,25.67
2018-03-16T04:17:32.522Z,25.10
2018-03-16T04:20:00.012Z,27.17
2018-03-16T04:22:27.595Z,24.87
2018-03-16T04:24:55.103Z,25.50
2018-03-16T04:27:23.356Z,25.27
2018-03-16T04:29:51.606Z,26.53
2018-03-16T04:32:19.085Z,26.00
2018-03-16T04:34:46.614Z,25.90
2018-03-16T04:37:14.103Z,24.53
2018-03-16T04:39:41.647Z,27.03
2018-03-16T04:42:09.914Z,23.93
2018-03-16T04:44:37.587Z,24.80
2018-03-16T04:47:05.069Z,23.17
2018-03-16T04:49:33.321Z,25.50
2018-03-16T04:52:01.575Z,25.70
2018-03-16T04:54:29.066Z,26.97
2018-03-16T04:56:56.543Z,26.90
2018-03-16T04:59:24.784Z,25.83
2018-03-16T05:01:52.263Z,25.20
2018-03-16T05:04:20.534Z,26.13
2018-03-16T05:06:48.762Z,25.13
2018-03-16T05:09:16.359Z,26.00
2018-03-16T05:11:45.081Z,26.53
2018-03-16T05:14:12.569Z,27.07
2018-03-16T05:16:40.084Z,27.10
2018-03-16T05:19:07.608Z,24.00
2018-03-16T05:21:35.157Z,23.93
2018-03-16T05:24:04.570Z,26.30
2018-03-16T05:26:32.840Z,25.90
2018-03-16T05:29:01.300Z,25.40
2018-03-16T05:31:28.799Z,25.83
2018-03-16T06:17:38.416Z,25.13
2018-03-16T06:20:05.906Z,26.70
2018-03-16T06:22:33.398Z,26.27
2018-03-16T06:25:01.698Z,26.27
2018-03-16T06:27:29.269Z,26.60
2018-03-16T06:29:56.787Z,27.67
2018-03-16T06:32:25.033Z,26.90
2018-03-16T06:34:52.526Z,26.87
2018-03-16T06:37:22.366Z,28.70
2018-03-16T06:39:55.271Z,28.83
2018-03-16T06:42:22.749Z,26.00
2018-03-16T06:44:50.377Z,25.73
2018-03-16T06:47:18.830Z,26.83
2018-03-16T06:49:46.341Z,31.63
2018-03-16T06:52:13.927Z,26.03
2018-03-16T06:54:41.394Z,25.83
2018-03-16T06:57:08.901Z,25.40
2018-03-16T06:59:36.422Z,24.27
2018-03-16T07:02:06.132Z,25.70
2018-03-16T07:04:35.878Z,24.93
2018-03-16T07:07:04.351Z,25.60
2018-03-16T07:09:32.704Z,26.90
2018-03-16T07:12:02.230Z,26.33
2018-03-16T07:14:30.928Z,27.03
2018-03-16T07:17:02.236Z,25.27
2018-03-16T07:19:30.707Z,24.73
2018-03-16T07:22:02.060Z,27.90
2018-03-16T07:24:31.938Z,24.73
2018-03-16T07:27:00.179Z,26.00
2018-03-16T07:29:27.816Z,24.90
2018-03-16T07:31:55.298Z,29.83
2018-03-16T07:34:22.844Z,24.53
2018-03-16T07:36:50.420Z,22.90
2018-03-16T07:39:17.917Z,25.17
2018-03-16T07:41:45.435Z,22.57
2018-03-16T07:44:12.927Z,23.73
2018-03-16T07:46:41.182Z,24.37
2018-03-16T07:49:09.492Z,23.07
2018-03-16T07:51:36.987Z,22.10
2018-03-16T07:54:04.462Z,24.77
2018-03-16T07:56:31.939Z,22.47
2018-03-16T07:58:59.445Z,24.17
2018-03-16T08:01:26.961Z,21.73
2018-03-16T08:03:54.456Z,24.23
2018-03-16T08:06:21.949Z,21.43
2018-03-16T08:08:50.233Z,22.27
2018-03-16T08:11:18.649Z,23.50
2018-03-16T08:13:46.157Z,23.10
2018-03-16T08:16:13.739Z,22.53
2018-03-16T08:18:41.248Z,21.33
2018-03-16T08:21:09.895Z,21.47
2018-03-16T08:23:37.412Z,20.70
2018-03-16T08:26:05.119Z,19.03
2018-03-16T08:28:32.630Z,19.60
2018-03-16T08:31:00.118Z,21.17
2018-03-16T08:33:27.659Z,20.10
2018-03-16T08:35:56.000Z,19.43
2018-03-16T08:38:23.491Z,20.47
2018-03-16T08:40:51.753Z,20.47
2018-03-16T08:43:19.352Z,23.40
2018-03-16T08:45:47.592Z,19.10
2018-03-16T08:48:15.909Z,23.63
2018-03-16T08:50:43.372Z,22.47
2018-03-16T08:53:10.872Z,21.43
2018-03-16T08:55:39.271Z,22.10
2018-03-16T08:58:06.730Z,23.33
2018-03-16T09:00:34.268Z,22.20
2018-03-16T09:03:02.535Z,23.07
2018-03-16T09:05:30.136Z,22.70
2018-03-16T09:07:57.693Z,21.47
2018-03-16T09:10:25.224Z,21.67
2018-03-16T09:12:53.728Z,20.23
2018-03-16T09:15:21.208Z,19.90
2018-03-16T09:17:48.727Z,20.77
2018-03-16T09:20:16.349Z,23.17
2018-03-16T09:22:43.850Z,19.33
2018-03-16T09:25:11.409Z,20.87
2018-03-16T09:27:38.939Z,19.47
2018-03-16T09:30:07.219Z,22.63
2018-03-16T09:32:35.521Z,20.20
2018-03-16T09:35:03.106Z,18.07
2018-03-16T09:37:30.595Z,18.67
2018-03-16T09:39:58.154Z,19.40
2018-03-16T09:42:25.697Z,18.83
2018-03-16T09:44:53.210Z,19.50
2018-03-16T09:47:20.730Z,20.43
2018-03-16T09:49:48.254Z,18.87
2018-03-16T09:52:15.826Z,18.67
2018-03-16T09:54:55.253Z,19.57
2018-03-16T09:57:22.827Z,19.13
2018-03-16T09:59:50.398Z,20.60
2018-03-16T10:02:18.752Z,20.90
2018-03-16T10:04:47.080Z,22.27
2018-03-16T10:07:14.661Z,19.70
2018-03-16T10:09:42.306Z,18.53
2018-03-16T10:12:10.176Z,17.87
2018-03-16T10:14:37.676Z,21.30
2018-03-16T10:17:05.251Z,23.07
2018-03-16T10:19:33.540Z,18.53
2018-03-16T10:22:03.425Z,19.50
2018-03-16T10:24:30.927Z,19.00
2018-03-16T10:26:58.480Z,22.07
2018-03-16T10:29:26.089Z,21.70
2018-03-16T10:31:53.768Z,19.20
2018-03-16T10:34:21.259Z,19.43
2018-03-16T10:36:48.746Z,18.27
2018-03-16T10:39:16.279Z,19.83
2018-03-16T10:41:43.771Z,19.93
2018-03-16T10:44:11.390Z,18.77
2018-03-16T10:46:39.155Z,19.17
2018-03-16T10:49:06.783Z,19.00
2018-03-16T10:51:35.099Z,19.40
2018-03-16T10:54:02.623Z,19.87
2018-03-16T10:56:31.024Z,19.93
2018-03-16T10:58:58.608Z,20.00
2018-03-16T11:01:26.262Z,19.27
2018-03-16T11:03:54.112Z,20.43
2018-03-16T11:06:27.410Z,28.40
2018-03-16T11:08:54.919Z,27.70
2018-03-16T11:11:23.297Z,28.40
2018-03-16T11:13:51.545Z,28.43
2018-03-16T11:16:19.170Z,28.77
2018-03-16T11:18:46.668Z,29.10
2018-03-16T11:21:14.236Z,32.00
2018-03-16T11:23:41.724Z,27.67
2018-03-16T11:26:09.244Z,29.87
2018-03-16T11:28:36.708Z,29.40
2018-03-16T11:31:04.187Z,29.10
2018-03-16T11:33:31.690Z,29.10
2018-03-16T11:35:59.210Z,26.67
2018-03-16T11:38:26.698Z,26.60
2018-03-16T11:40:54.208Z,27.83
2018-03-16T11:43:22.463Z,27.43
2018-03-16T11:45:49.956Z,25.80
2018-03-16T11:48:17.473Z,26.20
2018-03-16T11:50:45.078Z,27.23
2018-03-16T11:53:12.557Z,25.20
2018-03-16T11:55:40.248Z,27.37
2018-03-16T11:58:07.729Z,26.83
2018-03-16T12:00:35.989Z,25.07
2018-03-16T12:03:04.250Z,25.73
2018-03-16T12:05:31.767Z,24.77
2018-03-16T12:07:59.318Z,23.57
2018-03-16T12:10:27.095Z,22.40
2018-03-16T12:12:54.601Z,20.40
2018-03-16T12:15:22.990Z,20.63
2018-03-16T12:17:51.260Z,23.47
2018-03-16T12:20:19.527Z,23.13
2018-03-16T12:22:47.891Z,21.33
2018-03-16T12:25:15.538Z,23.33
2018-03-16T12:27:43.078Z,24.87
2018-03-16T12:30:10.548Z,24.70
2018-03-16T12:32:38.930Z,23.30
2018-03-16T12:35:06.439Z,19.83
2018-03-16T12:37:34.097Z,21.23
2018-03-16T12:40:01.592Z,21.03
2018-03-16T12:44:56.678Z,21.23
2018-03-16T12:47:24.230Z,25.13
2018-03-16T12:49:51.778Z,22.53
2018-03-16T12:52:19.412Z,21.73
2018-03-16T12:54:47.686Z,21.43
2018-03-16T12:57:15.951Z,22.77
2018-03-16T12:59:43.499Z,23.73
2018-03-16T13:02:10.973Z,23.27
2018-03-16T13:04:39.235Z,23.30
2018-03-16T13:07:06.728Z,26.30
2018-03-16T13:09:34.319Z,26.80
2018-03-16T13:12:01.858Z,21.10
2018-03-16T13:14:30.765Z,24.20
2018-03-16T13:16:58.662Z,20.93
2018-03-16T13:19:26.300Z,18.50
2018-03-16T13:21:54.137Z,19.37
2018-03-16T13:24:21.625Z,20.37
2018-03-16T13:26:49.138Z,20.20
2018-03-16T13:29:16.700Z,20.13
2018-03-16T13:31:44.224Z,22.27
2018-03-16T13:34:11.688Z,22.30
2018-03-16T13:36:40.102Z,22.67
2018-03-16T13:39:07.663Z,21.40
2018-03-16T13:41:35.197Z,22.53
2018-03-16T13:44:02.670Z,21.33
2018-03-16T13:46:30.165Z,20.00
2018-03-16T13:48:57.705Z,20.00
2018-03-16T13:51:25.249Z,20.00
2018-03-16T13:53:52.751Z,20.47
2018-03-16T13:56:20.250Z,20.40
2018-03-16T13:58:47.745Z,20.57
2018-03-16T14:01:15.227Z,21.47
2018-03-16T14:03:43.490Z,20.77
2018-03-16T14:06:10.994Z,21.80
2018-03-16T14:08:38.512Z,23.40
2018-03-16T14:11:06.014Z,23.77
2018-03-16T14:13:33.500Z,25.37
2018-03-16T14:16:01.478Z,25.23
2018-03-16T14:18:29.010Z,27.23
2018-03-16T14:20:56.506Z,26.03
2018-03-16T14:23:24.741Z,28.40
2018-03-16T14:25:52.229Z,26.80
2018-03-16T14:28:19.733Z,32.17
2018-03-16T14:30:47.234Z,34.37
2018-03-16T14:33:14.705Z,33.67
2018-03-16T14:35:42.977Z,32.13
2018-03-16T14:38:11.271Z,25.37
2018-03-16T14:40:39.529Z,26.10
2018-03-16T14:43:07.004Z,25.30
2018-03-16T14:45:35.264Z,25.47
2018-03-16T14:48:03.663Z,24.63
2018-03-16T14:50:31.176Z,25.30
2018-03-16T14:52:58.664Z,25.77
2018-03-16T14:55:26.988Z,20.97
2018-03-16T14:57:54.492Z,25.20
2018-03-16T15:00:22.800Z,23.30
2018-03-16T15:02:50.282Z,20.33
2018-03-16T15:05:17.804Z,23.87
2018-03-16T15:07:45.289Z,19.80
2018-03-16T15:10:12.911Z,22.20
2018-03-16T15:12:40.384Z,21.00
2018-03-16T15:15:07.878Z,18.83
2018-03-16T15:17:36.123Z,21.23
2018-03-16T15:20:03.631Z,19.73
2018-03-16T15:22:31.099Z,21.30
2018-03-16T15:24:59.387Z,19.07
2018-03-16T15:27:26.906Z,21.03
2018-03-16T15:29:54.485Z,22.03
2018-03-16T15:32:22.788Z,20.90
2018-03-16T15:34:50.400Z,21.50
2018-03-16T15:37:17.885Z,19.37
2018-03-16T15:39:45.417Z,17.23
2018-03-16T15:42:12.894Z,16.10
2018-03-16T15:44:41.149Z,17.03
2018-03-16T15:47:08.632Z,16.97
2018-03-16T15:49:36.166Z,15.27
2018-03-16T15:52:03.735Z,13.37
2018-03-16T15:54:32.184Z,14.70
2018-03-16T15:56:59.826Z,16.67
2018-03-16T15:59:27.513Z,15.57
2018-03-16T16:01:55.128Z,14.80
2018-03-16T16:04:22.757Z,15.47
2018-03-16T16:06:51.027Z,15.97
2018-03-16T16:09:19.382Z,17.67
2018-03-16T16:11:46.875Z,16.20
2018-03-16T16:14:14.448Z,17.40
2018-03-16T16:16:42.053Z,17.20
2018-03-16T16:19:09.564Z,18.07
2018-03-16T16:21:37.220Z,19.80
2018-03-16T16:24:04.773Z,14.97
2018-03-16T16:26:32.378Z,19.10
2018-03-16T16:28:59.943Z,18.67
2018-03-16T16:31:27.465Z,17.00
2018-03-16T16:33:54.973Z,14.53
2018-03-16T16:36:23.516Z,12.87
2018-03-16T16:38:51.181Z,13.73
2018-03-16T16:41:18.692Z,14.80
2018-03-16T16:43:46.397Z,15.87
2018-03-16T16:46:13.896Z,18.57
2018-03-16T16:48:42.179Z,17.90
2018-03-16T16:51:09.674Z,16.83
2018-03-16T16:53:37.474Z,17.93
2018-03-16T16:56:05.127Z,20.10
2018-03-16T16:58:32.944Z,18.93
2018-03-16T17:01:00.467Z,19.00
2018-03-16T17:03:28.741Z,18.10
2018-03-16T17:05:57.020Z,19.03
2018-03-16T17:08:25.312Z,17.87
2018-03-16T17:10:52.802Z,20.43
2018-03-16T17:13:20.543Z,17.07
2018-03-16T17:15:48.010Z,20.33
2018-03-16T17:18:15.522Z,21.67
2018-03-16T17:20:43.796Z,20.83
2018-03-16T17:23:12.029Z,16.53
2018-03-16T17:25:39.558Z,18.03
2018-03-16T17:28:07.381Z,19.33
2018-03-16T17:30:34.904Z,20.10
2018-03-16T17:33:02.380Z,19.10
2018-03-16T17:35:29.868Z,19.93
2018-03-16T17:37:58.119Z,19.90
2018-03-16T17:40:25.629Z,19.27
2018-03-16T17:42:53.103Z,16.87
2018-03-16T17:45:20.586Z,19.43
2018-03-16T17:47:49.731Z,19.83
2018-03-16T17:50:17.205Z,18.77
2018-03-16T17:52:44.899Z,21.60
2018-03-16T17:55:13.878Z,19.07
2018-03-16T17:57:41.363Z,15.80
2018-03-16T18:00:09.620Z,17.07
2018-03-16T18:02:37.865Z,19.27
2018-03-16T18:05:05.350Z,18.70
2018-03-16T18:07:32.923Z,25.13
2018-03-16T18:10:01.169Z,24.37
2018-03-16T18:12:28.686Z,26.17
2018-03-16T18:14:56.224Z,25.97
2018-03-16T18:17:24.488Z,23.90
2018-03-16T18:19:52.750Z,21.73
2018-03-16T18:22:21.001Z,18.80
2018-03-16T18:24:48.532Z,19.57
2018-03-16T18:27:16.049Z,20.37
2018-03-16T18:29:43.500Z,19.63
2018-03-16T18:32:11.776Z,21.13
2018-03-16T18:34:40.187Z,18.50
2018-03-16T18:37:07.710Z,19.67
2018-03-16T18:39:35.167Z,16.33
2018-03-16T18:42:03.581Z,21.80
2018-03-16T18:44:31.101Z,19.87
2018-03-16T18:46:59.553Z,19.33
2018-03-16T18:49:27.051Z,19.00
2018-03-16T18:51:54.567Z,20.13
2018-03-16T18:54:22.292Z,19.47
2018-03-16T18:56:49.785Z,17.87
2018-03-16T18:59:17.370Z,15.87
2018-03-16T19:01:45.621Z,22.20
2018-03-16T19:04:13.187Z,20.43
2018-03-16T19:06:40.697Z,18.80
2018-03-16T19:09:08.350Z,23.27
2018-03-16T19:11:37.165Z,21.67
2018-03-16T19:14:04.794Z,21.20
2018-03-16T19:16:32.298Z,22.13
2018-03-16T19:18:59.865Z,20.77
2018-03-16T19:21:27.360Z,19.13
2018-03-16T19:23:54.995Z,18.00
2018-03-16T19:26:23.658Z,21.03
2018-03-16T19:28:51.956Z,19.13
2018-03-16T19:31:20.222Z,22.03
2018-03-16T19:33:47.699Z,22.37
2018-03-16T19:36:15.217Z,21.60
2018-03-16T19:38:42.821Z,22.07
2018-03-16T19:41:10.303Z,21.73
2018-03-16T19:43:37.829Z,21.93
2018-03-16T19:46:05.352Z,20.97
2018-03-16T19:48:32.966Z,21.30
2018-03-16T19:51:00.431Z,21.17
2018-03-16T19:53:28.008Z,22.33
2018-03-16T19:55:55.682Z,22.13
2018-03-16T19:58:23.202Z,21.57
2018-03-16T20:00:50.732Z,22.03
2018-03-16T20:03:21.194Z,23.10
2018-03-16T20:05:52.823Z,24.83
2018-03-16T20:08:24.952Z,24.90
2018-03-16T20:10:55.298Z,24.17
2018-03-16T20:13:23.732Z,24.10
2018-03-16T20:15:51.350Z,25.60
2018-03-16T20:18:18.848Z,25.90
2018-03-16T20:20:46.348Z,22.70
2018-03-16T20:23:13.922Z,22.33
2018-03-16T20:25:41.428Z,23.70
2018-03-16T20:28:08.958Z,21.97
2018-03-16T20:30:36.440Z,19.10
2018-03-16T20:33:03.940Z,20.93
2018-03-16T20:35:31.527Z,21.90
2018-03-16T20:37:59.040Z,17.00
2018-03-16T20:40:27.542Z,20.37
2018-03-16T20:42:55.054Z,19.90
2018-03-16T20:45:22.707Z,19.80
2018-03-16T20:47:50.353Z,23.13
2018-03-16T20:50:17.859Z,23.00
2018-03-16T20:52:46.136Z,23.27
2018-03-16T20:55:14.463Z,23.97
2018-03-16T20:57:42.172Z,23.80
2018-03-16T21:00:10.685Z,24.33
2018-03-16T21:02:38.559Z,22.53
2018-03-16T21:05:06.147Z,23.80
2018-03-16T21:07:33.672Z,23.10
2018-03-16T21:10:01.346Z,22.87
2018-03-16T21:15:22.769Z,21.40
2018-03-16T21:17:51.014Z,19.70
2018-03-16T21:20:18.524Z,21.63
2018-03-16T21:22:46.388Z,21.07
2018-03-16T21:25:14.872Z,21.23
2018-03-16T21:27:42.358Z,21.67
2018-03-16T21:30:09.866Z,18.60
2018-03-16T21:32:37.440Z,18.33
2018-03-16T21:35:04.937Z,17.47
2018-03-16T21:37:32.584Z,19.70
2018-03-16T21:40:00.165Z,14.90
2018-03-16T21:42:27.756Z,16.37
2018-03-16T21:44:55.281Z,18.07
2018-03-16T21:47:23.193Z,15.77
2018-03-16T21:49:50.750Z,17.47
2018-03-16T21:52:19.025Z,17.43
2018-03-16T21:54:46.552Z,14.50
2018-03-16T21:57:15.066Z,16.40
2018-03-16T21:59:42.724Z,14.43
2018-03-16T22:02:10.277Z,15.07
2018-03-16T22:04:38.054Z,12.77
2018-03-16T22:07:05.735Z,14.17
2018-03-16T22:09:33.365Z,14.23
2018-03-16T22:14:57.441Z,11.87
2018-03-16T22:17:25.023Z,14.40
2018-03-16T22:19:52.535Z,13.23
2018-03-16T22:22:20.166Z,15.47
2018-03-16T22:24:47.795Z,14.70
2018-03-16T22:27:15.485Z,14.27
2018-03-16T22:29:43.129Z,13.23
2018-03-16T22:32:10.692Z,14.67
2018-03-16T22:34:38.234Z,14.53
2018-03-16T22:37:05.760Z,15.40
2018-03-16T22:39:33.335Z,14.30
2018-03-16T22:42:01.214Z,15.23
2018-03-16T22:44:28.729Z,13.43
2018-03-16T22:46:56.222Z,14.93
2018-03-16T22:49:23.755Z,13.97
2018-03-16T22:51:54.939Z,13.37
2018-03-16T22:54:24.928Z,14.07
2018-03-16T22:56:53.311Z,14.90
2018-03-16T22:59:20.885Z,13.57
2018-03-16T23:01:48.545Z,11.50
2018-03-16T23:04:16.068Z,13.37
2018-03-16T23:06:44.483Z,14.27
2018-03-16T23:09:12.110Z,13.37
2018-03-16T23:11:40.525Z,13.03
2018-03-16T23:14:08.328Z,13.10
2018-03-16T23:16:35.905Z,14.13
2018-03-16T23:19:04.180Z,13.47
2018-03-16T23:21:32.692Z,14.67
2018-03-16T23:24:00.195Z,11.87
2018-03-16T23:26:27.751Z,15.67
2018-03-16T23:28:55.270Z,14.40
2018-03-16T23:31:22.949Z,15.37
2018-03-16T23:33:50.431Z,13.87
2018-03-16T23:36:18.144Z,15.13
2018-03-16T23:38:45.645Z,13.60
2018-03-16T23:54:19.173Z,15.97
2018-03-16T23:56:46.798Z,16.93
2018-03-16T23:59:15.119Z,15.43
